createdAt,value
2019-05-03T00:00:42.511Z,96.12
2019-05-03T00:01:55.244Z,96.12
2019-05-03T00:03:06.934Z,95.84
2019-05-03T00:04:17.323Z,95.17
2019-05-03T00:05:27.628Z,95.36
2019-05-03T00:06:37.818Z,95.94
2019-05-03T00:07:47.957Z,96.69
2019-05-03T00:08:57.903Z,98.03
2019-05-03T00:10:09.204Z,96.22
2019-05-03T00:11:21.621Z,97.08
2019-05-03T00:12:32.715Z,96.65
2019-05-03T00:13:44.950Z,95.7
2019-05-03T00:14:55.396Z,94.74
2019-05-03T00:16:05.667Z,94.51
2019-05-03T00:17:17.186Z,95.12
2019-05-03T00:18:27.166Z,96.12
2019-05-03T00:19:38.089Z,95.94
2019-05-03T00:20:49.881Z,95.7
2019-05-03T00:22:01.938Z,95.6
2019-05-03T00:23:12.087Z,94.42
2019-05-03T00:24:22.654Z,94.46
2019-05-03T00:25:35.140Z,96.08
2019-05-03T00:26:46.790Z,94.56
2019-05-03T00:27:56.706Z,94.84
2019-05-03T00:29:07.222Z,95.84
2019-05-03T00:30:17.980Z,95.89
2019-05-03T00:31:31.821Z,95.41
2019-05-03T00:32:42.714Z,95.79
2019-05-03T00:33:54.116Z,96.12
2019-05-03T00:35:05.163Z,95.41
2019-05-03T00:36:17.237Z,95.98
2019-05-03T00:37:27.708Z,95.12
2019-05-03T00:38:38.027Z,96.26
2019-05-03T00:39:49.560Z,96.17
2019-05-03T00:41:01.719Z,95.41
2019-05-03T00:42:11.975Z,94.74
2019-05-03T00:43:22.229Z,95.89
2019-05-03T00:44:34.153Z,94.79
2019-05-03T00:45:45.067Z,95.79
2019-05-03T00:46:56.916Z,93.41
2019-05-03T00:48:07.540Z,93.13
2019-05-03T00:49:17.678Z,92.75
2019-05-03T00:50:27.905Z,94.37
2019-05-03T00:51:39.717Z,92.85
2019-05-03T00:52:51.444Z,91.33
2019-05-03T00:54:02.053Z,90.28
2019-05-03T00:55:19.340Z,90.56
2019-05-03T00:56:29.713Z,89.71
2019-05-03T00:57:41.488Z,89.9
2019-05-03T00:58:52.937Z,91.33
2019-05-03T01:00:04.992Z,89.8
2019-05-03T01:01:15.305Z,88.76
2019-05-03T01:02:26.333Z,89.14
2019-05-03T01:03:37.186Z,88.67
2019-05-03T01:04:47.156Z,88.76
2019-05-03T01:05:56.937Z,88.67
2019-05-03T01:07:07.558Z,87.71
2019-05-03T01:08:18.785Z,88.47
2019-05-03T01:09:31.591Z,87.43
2019-05-03T01:10:42.102Z,87.43
2019-05-03T01:11:52.440Z,87.05
2019-05-03T01:13:04.058Z,86.67
2019-05-03T01:14:15.266Z,86.76
2019-05-03T01:15:25.530Z,86.38
2019-05-03T01:16:37.244Z,85.62
2019-05-03T01:17:47.759Z,85.91
2019-05-03T01:18:57.811Z,86.76
2019-05-03T01:20:07.945Z,86.19
2019-05-03T01:21:19.591Z,85.43
2019-05-03T01:22:31.975Z,85.53
2019-05-03T01:23:44.354Z,84.29
2019-05-03T01:24:55.454Z,84.39
2019-05-03T01:26:05.630Z,84.01
2019-05-03T01:27:17.112Z,84.39
2019-05-03T01:28:27.085Z,84.2
2019-05-03T01:29:37.400Z,84.95
2019-05-03T01:30:47.533Z,84.86
2019-05-03T01:31:59.246Z,84.2
2019-05-03T01:33:11.997Z,84.95
2019-05-03T01:34:22.029Z,85.05
2019-05-03T01:35:32.243Z,86.1
2019-05-03T01:36:42.676Z,84.86
2019-05-03T01:37:54.489Z,85.15
2019-05-03T01:39:05.507Z,85.53
2019-05-03T01:40:15.693Z,86.29
2019-05-03T01:41:27.288Z,85.43
2019-05-03T01:42:37.639Z,85.72
2019-05-03T01:43:47.685Z,86.67
2019-05-03T01:44:57.705Z,87.43
2019-05-03T01:46:09.233Z,86
2019-05-03T01:47:19.146Z,86.57
2019-05-03T01:48:29.295Z,86.15
2019-05-03T01:49:39.827Z,86.76
2019-05-03T01:50:52.056Z,85.77
2019-05-03T01:52:02.202Z,85.39
2019-05-03T01:53:12.498Z,84.91
2019-05-03T01:54:25.325Z,85.3
2019-05-03T01:55:46.847Z,83.44
2019-05-03T01:57:02.384Z,82.54
2019-05-03T01:58:12.515Z,81.97
2019-05-03T01:59:22.653Z,82.64
2019-05-03T02:00:34.262Z,81.78
2019-05-03T02:01:45.175Z,81.73
2019-05-03T02:02:56.849Z,81.12
2019-05-03T02:04:06.718Z,80.93
2019-05-03T02:05:17.505Z,80.83
2019-05-03T02:06:27.531Z,79.97
2019-05-03T02:07:39.418Z,78.93
2019-05-03T02:08:52.138Z,79.22
2019-05-03T02:10:02.768Z,77.7
2019-05-03T02:11:14.731Z,78.74
2019-05-03T02:12:25.106Z,77.7
2019-05-03T02:13:35.085Z,77.6
2019-05-03T02:14:45.645Z,77.7
2019-05-03T02:15:56.951Z,79.6
2019-05-03T02:17:07.573Z,78.45
2019-05-03T02:18:17.765Z,79.03
2019-05-03T02:19:27.649Z,78.83
2019-05-03T02:20:37.931Z,79.41
2019-05-03T02:21:49.176Z,79.97
2019-05-03T02:22:59.971Z,79.22
2019-05-03T02:24:11.772Z,78.55
2019-05-03T02:25:21.912Z,78.17
2019-05-03T02:26:31.757Z,78.64
2019-05-03T02:27:42.193Z,78.64
2019-05-03T02:28:52.789Z,79.69
2019-05-03T02:30:05.684Z,79.97
2019-05-03T02:31:19.174Z,79.41
2019-05-03T02:32:33.067Z,79.79
2019-05-03T02:33:45.774Z,81.49
2019-05-03T02:34:58.012Z,79.97
2019-05-03T02:36:13.284Z,80.35
2019-05-03T02:37:26.188Z,81.21
2019-05-03T02:38:38.348Z,81.12
2019-05-03T02:39:52.758Z,81.78
2019-05-03T02:41:05.261Z,81.68
2019-05-03T02:42:18.596Z,81.78
2019-05-03T02:43:29.471Z,81.97
2019-05-03T02:44:41.487Z,81.68
2019-05-03T02:45:56.499Z,82.26
2019-05-03T02:47:08.553Z,82.16
2019-05-03T02:48:19.058Z,82.16
2019-05-03T02:49:30.870Z,82.35
2019-05-03T02:50:45.120Z,82.07
2019-05-03T02:51:57.916Z,81.97
2019-05-03T02:53:09.334Z,81.97
2019-05-03T02:54:20.778Z,83.59
2019-05-03T02:55:36.378Z,83.11
2019-05-03T02:56:48.388Z,82.73
2019-05-03T02:58:01.003Z,82.64
2019-05-03T02:59:15.698Z,83.39
2019-05-03T03:00:29.168Z,82.73
2019-05-03T03:01:41.480Z,83.49
2019-05-03T03:02:55.706Z,83.97
2019-05-03T03:04:08.323Z,84.53
2019-05-03T03:05:20.856Z,83.3
2019-05-03T03:06:32.953Z,83.3
2019-05-03T03:07:45.937Z,83.2
2019-05-03T03:08:58.609Z,84.34
2019-05-03T03:10:10.767Z,85.58
2019-05-03T03:11:26.067Z,84.82
2019-05-03T03:12:38.477Z,85.01
2019-05-03T03:13:51.611Z,85.86
2019-05-03T03:15:05.896Z,83.3
2019-05-03T03:16:25.083Z,83.3
2019-05-03T03:17:38.522Z,83.3
2019-05-03T03:18:50.731Z,83.3
2019-05-03T03:20:05.426Z,83.11
2019-05-03T03:21:18.424Z,83.3
2019-05-03T03:22:30.938Z,83.3
2019-05-03T03:23:46.035Z,82.82
2019-05-03T03:24:58.984Z,82.07
2019-05-03T03:26:10.775Z,80.26
2019-05-03T03:27:47.769Z,79.69
2019-05-03T03:28:58.853Z,79.5
2019-05-03T03:30:11.148Z,79.22
2019-05-03T03:31:28.140Z,77.31
2019-05-03T03:32:47.859Z,77.7
2019-05-03T03:34:07.511Z,77.7
2019-05-03T03:35:28.996Z,77.98
2019-05-03T03:37:06.097Z,78.61
2019-05-03T03:38:20.927Z,78.61
2019-05-03T03:39:35.968Z,77.94
2019-05-03T03:40:48.675Z,78.61
2019-05-03T03:42:05.234Z,79.36
2019-05-03T03:43:18.090Z,79.17
2019-05-03T03:44:28.905Z,79.46
2019-05-03T03:45:41.593Z,79.84
2019-05-03T03:46:55.840Z,79.08
2019-05-03T03:48:08.394Z,78.61
2019-05-03T03:49:20.776Z,78.51
2019-05-03T03:50:31.280Z,78.89
2019-05-03T03:51:45.478Z,79.08
2019-05-03T03:52:58.114Z,79.46
2019-05-03T03:54:09.677Z,80.22
2019-05-03T03:55:20.562Z,80.32
2019-05-03T03:56:31.794Z,80.03
2019-05-03T03:58:11.086Z,79.08
2019-05-03T03:59:32.437Z,78.89
2019-05-03T04:00:46.370Z,79.55
2019-05-03T04:01:58.419Z,79.65
2019-05-03T04:03:10.856Z,80.22
2019-05-03T04:04:25.948Z,80.22
2019-05-03T04:05:38.584Z,80.69
2019-05-03T04:06:51.894Z,80.88
2019-05-03T04:08:09.495Z,80.22
2019-05-03T04:09:21.550Z,80.6
2019-05-03T04:10:35.214Z,81.04
2019-05-03T04:11:46.265Z,81.7
2019-05-03T04:12:58.480Z,80.75
2019-05-03T04:14:10.755Z,80.65
2019-05-03T04:15:25.743Z,80.65
2019-05-03T04:16:38.705Z,81.6
2019-05-03T04:17:50.740Z,81.7
2019-05-03T04:19:05.715Z,81.13
2019-05-03T04:20:18.624Z,81.04
2019-05-03T04:21:31.045Z,81.13
2019-05-03T04:22:45.219Z,81.13
2019-05-03T04:23:58.024Z,81.41
2019-05-03T04:25:08.940Z,81.6
2019-05-03T04:26:20.733Z,81.04
2019-05-03T04:27:39.038Z,81.41
2019-05-03T04:28:50.935Z,81.41
2019-05-03T04:30:05.841Z,82.08
2019-05-03T04:31:17.779Z,81.6
2019-05-03T04:32:31.255Z,81.7
2019-05-03T04:33:45.016Z,82.36
2019-05-03T04:34:55.888Z,82.74
2019-05-03T04:36:08.352Z,82.65
2019-05-03T04:37:21.093Z,82.65
2019-05-03T04:38:35.386Z,83.22
2019-05-03T04:39:48.520Z,83.12
2019-05-03T04:41:00.976Z,83.22
2019-05-03T04:42:16.426Z,83.22
2019-05-03T04:43:29.114Z,84.26
2019-05-03T04:44:40.953Z,84.26
2019-05-03T04:45:55.443Z,84.07
2019-05-03T04:47:09.722Z,84.07
2019-05-03T04:48:21.034Z,84.36
2019-05-03T04:49:32.970Z,83.88
2019-05-03T04:50:45.624Z,84.07
2019-05-03T04:51:58.548Z,85.4
2019-05-03T04:53:11.136Z,84.55
2019-05-03T04:54:25.200Z,84.55
2019-05-03T04:55:38.716Z,84.45
2019-05-03T04:56:49.775Z,84.64
2019-05-03T04:58:01.259Z,84.83
2019-05-03T04:59:12.469Z,85.4
2019-05-03T05:00:25.553Z,86.16
2019-05-03T05:01:38.561Z,85.78
2019-05-03T05:02:51.258Z,86.16
2019-05-03T05:04:05.172Z,86.07
2019-05-03T05:05:17.830Z,85.21
2019-05-03T05:06:29.283Z,85.49
2019-05-03T05:07:40.075Z,85.49
2019-05-03T05:08:51.011Z,85.21
2019-05-03T05:10:04.942Z,85.49
2019-05-03T05:11:18.090Z,85.21
2019-05-03T05:12:29.275Z,85.68
2019-05-03T05:13:40.862Z,85.4
2019-05-03T05:14:56.081Z,85.02
2019-05-03T05:16:08.641Z,84.64
2019-05-03T05:17:21.201Z,84.83
2019-05-03T05:18:35.278Z,84.74
2019-05-03T05:19:46.791Z,84.83
2019-05-03T05:20:57.927Z,84.26
2019-05-03T05:22:09.534Z,84.74
2019-05-03T05:23:20.596Z,84.74
2019-05-03T05:24:34.500Z,84.83
2019-05-03T05:25:44.690Z,84.74
2019-05-03T05:26:55.003Z,85.59
2019-05-03T05:28:07.093Z,85.21
2019-05-03T05:29:17.652Z,84.83
2019-05-03T05:30:28.263Z,84.55
2019-05-03T05:31:40.478Z,85.59
2019-05-03T05:32:52.244Z,85.11
2019-05-03T05:34:02.944Z,85.4
2019-05-03T05:35:17.830Z,85.59
2019-05-03T05:36:29.984Z,86.07
2019-05-03T05:37:39.538Z,85.3
2019-05-03T05:38:49.660Z,85.49
2019-05-03T05:40:00.456Z,85.4
2019-05-03T05:41:10.534Z,86.25
2019-05-03T05:42:20.686Z,86.07
2019-05-03T05:43:32.369Z,86.25
2019-05-03T05:44:45.153Z,85.59
2019-05-03T05:45:57.334Z,86.72
2019-05-03T05:47:10.284Z,86.63
2019-05-03T05:48:20.278Z,86.07
2019-05-03T05:49:31.995Z,85.49
2019-05-03T05:50:44.748Z,85.87
2019-05-03T05:51:56.996Z,85.87
2019-05-03T05:53:07.869Z,85.11
2019-05-03T05:54:18.166Z,84.83
2019-05-03T05:55:29.825Z,84.36
2019-05-03T05:56:41.544Z,85.21
2019-05-03T05:58:08.102Z,85.25
2019-05-03T05:59:18.606Z,83.92
2019-05-03T06:00:29.866Z,84.4
2019-05-03T06:01:41.221Z,84.21
2019-05-03T06:02:55.082Z,83.36
2019-05-03T06:04:05.395Z,83.73
2019-05-03T06:05:18.320Z,83.16
2019-05-03T06:06:30.344Z,83.16
2019-05-03T06:07:44.215Z,82.69
2019-05-03T06:08:54.723Z,82.97
2019-05-03T06:10:05.229Z,82.31
2019-05-03T06:11:19.270Z,82.12
2019-05-03T06:12:31.024Z,82.59
2019-05-03T06:13:44.427Z,82.88
2019-05-03T06:14:54.467Z,83.45
2019-05-03T06:16:05.114Z,83.26
2019-05-03T06:17:16.986Z,82.59
2019-05-03T06:18:27.596Z,82.69
2019-05-03T06:19:38.244Z,82.4
2019-05-03T06:20:49.874Z,82.12
2019-05-03T06:22:01.706Z,82.88
2019-05-03T06:23:14.334Z,82.88
2019-05-03T06:24:24.890Z,83.07
2019-05-03T06:25:35.390Z,82.21
2019-05-03T06:26:46.822Z,81.84
2019-05-03T06:27:57.519Z,82.31
2019-05-03T06:29:24.748Z,80.03
2019-05-03T06:30:35.119Z,79.94
2019-05-03T06:31:46.976Z,79.74
2019-05-03T06:32:57.966Z,80.79
2019-05-03T06:34:08.025Z,81.26
2019-05-03T06:35:19.931Z,80.79
2019-05-03T06:36:29.668Z,80.79
2019-05-03T06:37:40.376Z,78.17
2019-05-03T06:38:51.219Z,77.03
2019-05-03T06:40:05.584Z,77.6
2019-05-03T06:41:18.725Z,78.27
2019-05-03T06:42:29.767Z,78.83
2019-05-03T06:43:55.196Z,78.74
2019-05-03T06:45:15.043Z,78.36
2019-05-03T06:46:32.386Z,79.03
2019-05-03T06:47:49.854Z,78.93
2019-05-03T06:49:06.377Z,77.7
2019-05-03T06:50:25.077Z,77.6
2019-05-03T06:51:39.910Z,76.84
2019-05-03T06:52:59.751Z,75.7
2019-05-03T06:54:26.525Z,74.47
2019-05-03T06:55:45.402Z,73.8
2019-05-03T06:57:05.558Z,73.52
2019-05-03T06:58:36.411Z,75.42
2019-05-03T06:59:47.783Z,74.12
2019-05-03T07:00:57.909Z,73.61
2019-05-03T07:02:09.824Z,74.22
2019-05-03T07:03:20.142Z,73.9
2019-05-03T07:04:30.493Z,73.55
2019-05-03T07:05:42.309Z,72.99
2019-05-03T07:06:52.651Z,73.08
2019-05-03T07:08:03.200Z,72.79
2019-05-03T07:09:14.516Z,72.79
2019-05-03T07:10:24.900Z,72.89
2019-05-03T07:11:37.247Z,72.99
2019-05-03T07:12:48.036Z,73.08
2019-05-03T07:14:00.028Z,73.65
2019-05-03T07:15:10.337Z,73.27
2019-05-03T07:16:22.142Z,72.99
2019-05-03T07:17:34.906Z,73.08
2019-05-03T07:18:45.411Z,73.08
2019-05-03T07:19:59.389Z,72.6
2019-05-03T07:21:09.682Z,71.37
2019-05-03T07:22:20.033Z,71.75
2019-05-03T07:23:31.776Z,71.66
2019-05-03T07:24:45.377Z,71.66
2019-05-03T07:25:57.691Z,71.84
2019-05-03T07:27:08.301Z,72.03
2019-05-03T07:28:18.770Z,72.32
2019-05-03T07:29:30.116Z,73.08
2019-05-03T07:30:41.895Z,72.22
2019-05-03T07:31:54.677Z,71.46
2019-05-03T07:33:04.927Z,70.23
2019-05-03T07:34:15.543Z,71.66
2019-05-03T07:35:27.721Z,70.61
2019-05-03T07:36:38.223Z,70.61
2019-05-03T07:37:49.996Z,71.08
2019-05-03T07:39:00.462Z,71.75
2019-05-03T07:40:10.403Z,71.56
2019-05-03T07:41:24.381Z,70.32
2019-05-03T07:42:38.437Z,71.84
2019-05-03T07:43:49.929Z,72.99
2019-05-03T07:45:00.298Z,73.18
2019-05-03T07:46:14.524Z,71.46
2019-05-03T07:47:27.061Z,69.37
2019-05-03T07:48:37.914Z,69.75
2019-05-03T07:49:48.596Z,69.56
2019-05-03T07:51:00.177Z,69.88
2019-05-03T07:52:11.827Z,69.6
2019-05-03T07:53:22.203Z,68.36
2019-05-03T07:54:34.588Z,66.94
2019-05-03T07:55:45.647Z,66.05
2019-05-03T07:56:57.579Z,66.71
2019-05-03T07:58:08.075Z,68.46
2019-05-03T07:59:20.263Z,68.23
2019-05-03T08:00:30.409Z,68.46
2019-05-03T08:01:42.065Z,67.03
2019-05-03T08:02:54.957Z,64.94
2019-05-03T08:04:05.405Z,64.46
2019-05-03T08:05:15.571Z,64.18
2019-05-03T08:06:27.497Z,65.03
2019-05-03T08:07:39.803Z,65.8
2019-05-03T08:08:52.059Z,65.8
2019-05-03T08:10:02.252Z,67.13
2019-05-03T08:11:14.429Z,66.65
2019-05-03T08:12:24.721Z,65.99
2019-05-03T08:13:35.527Z,66.08
2019-05-03T08:14:47.557Z,66.36
2019-05-03T08:15:58.099Z,66.08
2019-05-03T08:17:08.877Z,65.6
2019-05-03T08:18:20.511Z,61.64
2019-05-03T08:19:31.084Z,61.99
2019-05-03T08:20:44.768Z,62.75
2019-05-03T08:21:56.610Z,63.42
2019-05-03T08:23:07.856Z,63.7
2019-05-03T08:24:37.744Z,64.65
2019-05-03T08:25:50.698Z,63.83
2019-05-03T08:27:04.981Z,63.51
2019-05-03T08:28:17.155Z,63.83
2019-05-03T08:29:27.509Z,63.92
2019-05-03T08:30:38.192Z,63.35
2019-05-03T08:31:49.753Z,63.54
2019-05-03T08:32:59.920Z,64.11
2019-05-03T08:34:10.799Z,62.69
2019-05-03T08:35:24.262Z,62.3
2019-05-03T08:36:34.898Z,60.97
2019-05-03T08:37:45.303Z,61.07
2019-05-03T08:38:58.870Z,60.78
2019-05-03T08:40:10.472Z,61.45
2019-05-03T08:41:20.652Z,61.16
2019-05-03T08:42:32.353Z,61.74
2019-05-03T08:43:44.559Z,61.26
2019-05-03T08:44:55.291Z,62.3
2019-05-03T08:46:07.364Z,63.26
2019-05-03T08:47:18.018Z,61.55
2019-05-03T08:48:30.053Z,60.15
2019-05-03T08:49:40.489Z,58.31
2019-05-03T08:50:52.633Z,58.22
2019-05-03T08:52:05.229Z,59.45
2019-05-03T08:53:17.991Z,58.98
2019-05-03T08:54:30.934Z,57.96
2019-05-03T08:55:42.188Z,57.2
2019-05-03T08:56:52.658Z,57.96
2019-05-03T08:58:05.158Z,57.42
2019-05-03T08:59:26.673Z,57.51
2019-05-03T09:00:41.072Z,55.7
2019-05-03T09:01:54.801Z,52.75
2019-05-03T09:03:20.291Z,52.09
2019-05-03T09:04:43.005Z,51.99
2019-05-03T09:05:56.400Z,50.59
2019-05-03T09:07:08.030Z,50.78
2019-05-03T09:08:20.130Z,50.59
2019-05-03T09:09:34.644Z,50.59
2019-05-03T09:10:45.928Z,52.01
2019-05-03T09:11:58.113Z,52.87
2019-05-03T09:13:09.955Z,50.83
2019-05-03T09:14:24.311Z,48.94
2019-05-03T09:15:55.167Z,47.03
2019-05-03T09:17:07.477Z,48.92
2019-05-03T09:18:20.038Z,48.83
2019-05-03T09:19:30.649Z,49.11
2019-05-03T09:20:42.208Z,49.47
2019-05-03T09:21:54.748Z,50.13
2019-05-03T09:23:05.417Z,50.78
2019-05-03T09:24:17.677Z,51.06
2019-05-03T09:25:29.570Z,50.68
2019-05-03T09:26:40.870Z,49.76
2019-05-03T09:27:52.373Z,50.42
2019-05-03T09:29:02.917Z,50.23
2019-05-03T09:30:14.472Z,50.52
2019-05-03T09:31:24.712Z,50.23
2019-05-03T09:32:34.990Z,50.52
2019-05-03T09:33:45.222Z,50.04
2019-05-03T09:34:57.615Z,50.13
2019-05-03T09:36:08.438Z,47.68
2019-05-03T09:37:20.021Z,45.49
2019-05-03T09:38:30.094Z,45.87
2019-05-03T09:39:44.504Z,45.87
2019-05-03T09:40:54.718Z,45.89
2019-05-03T09:42:07.109Z,44.94
2019-05-03T09:43:18.423Z,46.18
2019-05-03T09:44:30.442Z,46.84
2019-05-03T09:45:42.562Z,47.97
2019-05-03T09:46:54.944Z,49.02
2019-05-03T09:48:05.637Z,47.78
2019-05-03T09:49:19.034Z,47.68
2019-05-03T09:50:30.689Z,47.78
2019-05-03T09:51:41.326Z,47.49
2019-05-03T09:52:51.583Z,47.39
2019-05-03T09:54:05.124Z,48.8
2019-05-03T09:55:17.715Z,48.25
2019-05-03T09:56:28.352Z,47.2
2019-05-03T09:57:39.373Z,47.78
2019-05-03T09:58:49.497Z,48.04
2019-05-03T10:00:04.676Z,48.13
2019-05-03T10:01:15.190Z,45.29
2019-05-03T10:02:27.144Z,45.01
2019-05-03T10:03:38.983Z,44.37
2019-05-03T10:04:50.539Z,43.98
2019-05-03T10:06:02.977Z,42
2019-05-03T10:07:15.055Z,42.19
2019-05-03T10:08:27.937Z,41.16
2019-05-03T10:09:38.711Z,40.59
2019-05-03T10:10:50.072Z,41.33
2019-05-03T10:12:00.054Z,42.96
2019-05-03T10:13:23.323Z,42.4
2019-05-03T10:14:34.884Z,42.11
2019-05-03T10:15:45.072Z,41.47
2019-05-03T10:16:57.228Z,41.55
2019-05-03T10:18:13.314Z,42
2019-05-03T10:19:40.230Z,43.72
2019-05-03T10:20:52.778Z,44.56
2019-05-03T10:22:04.548Z,44.46
2019-05-03T10:23:17.350Z,43.03
2019-05-03T10:24:27.694Z,43.6
2019-05-03T10:25:40.267Z,42.29
2019-05-03T10:26:50.551Z,42.96
2019-05-03T10:28:02.835Z,43.72
2019-05-03T10:29:15.213Z,43.72
2019-05-03T10:30:25.292Z,42.77
2019-05-03T10:31:35.446Z,42.57
2019-05-03T10:32:47.749Z,43.15
2019-05-03T10:33:57.712Z,43.7
2019-05-03T10:35:08.495Z,44.82
2019-05-03T10:36:20.586Z,46.25
2019-05-03T10:37:32.433Z,46.54
2019-05-03T10:38:45.634Z,46.34
2019-05-03T10:39:58.428Z,45.39
2019-05-03T10:41:12.967Z,44.46
2019-05-03T10:42:24.420Z,42.96
2019-05-03T10:43:35.432Z,43.05
2019-05-03T10:44:47.695Z,43.53
2019-05-03T10:45:58.444Z,42.1
2019-05-03T10:47:10.387Z,38.95
2019-05-03T10:48:22.238Z,40.36
2019-05-03T10:49:32.734Z,41
2019-05-03T10:50:42.915Z,41.86
2019-05-03T10:51:57.367Z,42.15
2019-05-03T10:53:08.528Z,43.01
2019-05-03T10:54:20.356Z,42.74
2019-05-03T10:55:30.341Z,41.43
2019-05-03T10:56:40.855Z,40.01
2019-05-03T10:57:54.259Z,40.28
2019-05-03T10:59:05.969Z,39.98
2019-05-03T11:00:50.122Z,40.64
2019-05-03T11:02:04.369Z,41.98
2019-05-03T11:03:14.583Z,41.6
2019-05-03T11:04:24.561Z,41.69
2019-05-03T11:05:34.835Z,42.05
2019-05-03T11:06:45.671Z,43.01
2019-05-03T11:07:57.860Z,43.87
2019-05-03T11:09:08.303Z,45.78
2019-05-03T11:10:20.620Z,45.78
2019-05-03T11:11:30.584Z,45.97
2019-05-03T11:12:42.548Z,47.02
2019-05-03T11:13:52.534Z,47.49
2019-05-03T11:15:02.491Z,48.54
2019-05-03T11:16:12.479Z,46.54
2019-05-03T11:17:22.607Z,46.06
2019-05-03T11:18:34.532Z,47.08
2019-05-03T11:19:45.385Z,47.56
2019-05-03T11:20:57.527Z,48.16
2019-05-03T11:22:08.333Z,48.83
2019-05-03T11:23:19.642Z,47.58
2019-05-03T11:24:30.439Z,46.75
2019-05-03T11:25:42.441Z,45.61
2019-05-03T11:26:52.764Z,44.08
2019-05-03T11:28:07.274Z,44.56
2019-05-03T11:29:18.294Z,45.78
2019-05-03T11:30:30.032Z,45.68
2019-05-03T11:31:40.916Z,44.34
2019-05-03T11:32:52.202Z,44.15
2019-05-03T11:34:03.273Z,45.08
2019-05-03T11:35:14.998Z,45.94
2019-05-03T11:36:25.290Z,46.13
2019-05-03T11:37:37.736Z,46.32
2019-05-03T11:38:48.257Z,46.04
2019-05-03T11:39:58.758Z,46.92
2019-05-03T11:41:10.379Z,46.06
2019-05-03T11:42:37.688Z,44.65
2019-05-03T11:43:49.976Z,42.19
2019-05-03T11:44:59.945Z,40.95
2019-05-03T11:46:09.650Z,39.61
2019-05-03T11:47:20.053Z,41.14
2019-05-03T11:48:34.847Z,41.31
2019-05-03T11:49:45.347Z,40.86
2019-05-03T11:50:57.496Z,41.06
2019-05-03T11:52:08.994Z,41.74
2019-05-03T11:53:21.219Z,40.7
2019-05-03T11:54:32.879Z,40.97
2019-05-03T11:55:46.175Z,40.69
2019-05-03T11:56:58.168Z,41.26
2019-05-03T11:58:10.267Z,41.35
2019-05-03T11:59:19.944Z,42.19
2019-05-03T12:00:31.459Z,43.03
2019-05-03T12:01:41.162Z,43.98
2019-05-03T12:02:55.562Z,43.79
2019-05-03T12:04:07.795Z,43.87
2019-05-03T12:05:18.258Z,44.44
2019-05-03T12:06:29.541Z,44.25
2019-05-03T12:07:42.678Z,44.53
2019-05-03T12:08:55.241Z,44.25
2019-05-03T12:10:15.980Z,44.82
2019-05-03T12:12:04.862Z,44.63
2019-05-03T12:13:15.739Z,43.96
2019-05-03T12:14:27.555Z,44.34
2019-05-03T12:15:37.762Z,44.25
2019-05-03T12:17:26.698Z,44.44
2019-05-03T12:18:56.878Z,44.74
2019-05-03T12:20:32.092Z,43.41
2019-05-03T12:21:50.936Z,43.22
2019-05-03T12:23:05.921Z,42.93
2019-05-03T12:24:21.264Z,43.33
2019-05-03T12:25:39.169Z,41.81
2019-05-03T12:26:55.780Z,41.79
2019-05-03T12:28:08.356Z,43.03
2019-05-03T12:29:20.484Z,43.51
2019-05-03T12:30:31.893Z,43.32
2019-05-03T12:31:45.351Z,42.96
2019-05-03T12:32:57.412Z,41.43
2019-05-03T12:34:08.959Z,41.91
2019-05-03T12:35:21.165Z,41.71
2019-05-03T12:36:35.810Z,41.52
2019-05-03T12:37:48.757Z,41.33
2019-05-03T12:39:00.731Z,41.62
2019-05-03T12:40:34.931Z,41.81
2019-05-03T12:41:44.589Z,43.03
2019-05-03T12:42:57.948Z,43.79
2019-05-03T12:44:09.053Z,44.25
2019-05-03T12:45:20.535Z,43.68
2019-05-03T12:46:32.195Z,43.87
2019-05-03T12:47:45.083Z,44.15
2019-05-03T12:48:54.976Z,44.34
2019-05-03T12:50:05.256Z,44.25
2019-05-03T12:51:17.661Z,45.2
2019-05-03T12:52:30.032Z,44.73
2019-05-03T12:53:55.235Z,44.82
2019-05-03T12:55:07.667Z,45.78
2019-05-03T12:56:32.514Z,46.25
2019-05-03T12:57:43.221Z,47.2
2019-05-03T12:58:55.120Z,46.34
2019-05-03T13:00:07.387Z,45.97
2019-05-03T13:01:18.273Z,46.73
2019-05-03T13:02:44.603Z,47.11
2019-05-03T13:03:55.413Z,46.34
2019-05-03T13:05:07.247Z,47.11
2019-05-03T13:06:18.165Z,47.49
2019-05-03T13:07:28.348Z,47.39
2019-05-03T13:08:40.199Z,46.82
2019-05-03T13:09:50.935Z,45.13
2019-05-03T13:11:02.153Z,44.94
2019-05-03T13:12:14.698Z,43.89
2019-05-03T13:13:25.015Z,44.01
2019-05-03T13:14:37.045Z,43.62
2019-05-03T13:15:48.320Z,42.48
2019-05-03T13:17:00.234Z,40.2
2019-05-03T13:18:15.652Z,39.73
2019-05-03T13:19:28.261Z,41.55
2019-05-03T13:20:40.223Z,41.28
2019-05-03T13:21:50.699Z,40.99
2019-05-03T13:23:00.972Z,40.99
2019-05-03T13:24:26.063Z,40.52
2019-05-03T13:25:38.119Z,39.1
2019-05-03T13:26:49.942Z,38.81
2019-05-03T13:27:59.939Z,37.93
2019-05-03T13:29:10.508Z,38.79
2019-05-03T13:30:24.944Z,39.44
2019-05-03T13:31:37.370Z,39.9
2019-05-03T13:33:05.754Z,40.95
2019-05-03T13:34:18.388Z,41.41
2019-05-03T13:35:30.091Z,41.98
2019-05-03T13:36:40.528Z,42.36
2019-05-03T13:37:51.052Z,43.68
2019-05-03T13:39:16.101Z,44.34
2019-05-03T13:40:29.293Z,44.44
2019-05-03T13:41:40.966Z,45.01
2019-05-03T13:43:04.394Z,45.68
2019-05-03T13:44:18.192Z,46.44
2019-05-03T13:45:29.971Z,46.34
2019-05-03T13:46:40.325Z,46.42
2019-05-03T13:47:52.249Z,47.08
2019-05-03T13:49:02.722Z,47.47
2019-05-03T13:50:15.096Z,47.94
2019-05-03T13:51:27.835Z,47.85
2019-05-03T13:52:38.465Z,47.94
2019-05-03T13:53:50.475Z,48.78
2019-05-03T13:55:02.339Z,48.99
2019-05-03T13:56:15.140Z,48.99
2019-05-03T13:57:27.265Z,48.52
2019-05-03T13:58:38.485Z,47.94
2019-05-03T13:59:49.836Z,48.23
2019-05-03T14:01:00.473Z,47.18
2019-05-03T14:02:19.182Z,46.8
2019-05-03T14:03:29.285Z,46.8
2019-05-03T14:04:53.037Z,46.92
2019-05-03T14:06:07.593Z,45.01
2019-05-03T14:07:18.127Z,44.73
2019-05-03T14:08:28.069Z,44.44
2019-05-03T14:09:40.181Z,42.46
2019-05-03T14:10:50.343Z,41.41
2019-05-03T14:12:00.928Z,41.67
2019-05-03T14:13:14.678Z,43.01
2019-05-03T14:14:25.808Z,43.77
2019-05-03T14:15:37.556Z,43.32
2019-05-03T14:16:48.250Z,43.7
2019-05-03T14:18:00.031Z,43.03
2019-05-03T14:19:11.274Z,43.62
2019-05-03T14:20:22.296Z,42.96
2019-05-03T14:21:34.538Z,42.02
2019-05-03T14:22:44.376Z,41.83
2019-05-03T14:23:54.339Z,42.02
2019-05-03T14:25:04.608Z,42.31
2019-05-03T14:26:15.086Z,42.67
2019-05-03T14:27:27.851Z,43.72
2019-05-03T14:28:40.052Z,42.97
2019-05-03T14:29:50.433Z,42.11
2019-05-03T14:31:02.188Z,43.33
2019-05-03T14:32:25.309Z,44.2
2019-05-03T14:33:38.775Z,44.08
2019-05-03T14:34:50.150Z,44.27
2019-05-03T14:36:02.354Z,44.94
2019-05-03T14:37:12.961Z,45.61
2019-05-03T14:38:25.268Z,45.22
2019-05-03T14:39:35.397Z,45.89
2019-05-03T14:40:47.646Z,45.97
2019-05-03T14:42:00.214Z,46.54
2019-05-03T14:43:12.328Z,47.02
2019-05-03T14:44:25.061Z,46.92
2019-05-03T14:45:37.394Z,47.39
2019-05-03T14:46:48.404Z,48.16
2019-05-03T14:48:06.119Z,48.35
2019-05-03T14:49:18.161Z,48.54
2019-05-03T14:50:28.450Z,48.71
2019-05-03T14:51:40.336Z,48.71
2019-05-03T14:52:50.854Z,48.32
2019-05-03T14:54:05.306Z,48.97
2019-05-03T14:55:17.302Z,49.92
2019-05-03T14:56:28.083Z,50.68
2019-05-03T14:57:40.805Z,50.68
2019-05-03T14:58:51.858Z,50.49
2019-05-03T15:00:03.669Z,51.06
2019-05-03T15:01:15.442Z,51.92
2019-05-03T15:02:39.998Z,52.78
2019-05-03T15:04:00.593Z,52.59
2019-05-03T15:05:11.201Z,52.68
2019-05-03T15:06:24.784Z,52.3
2019-05-03T15:07:35.136Z,52.78
2019-05-03T15:08:45.195Z,53.06
2019-05-03T15:09:57.588Z,53.44
2019-05-03T15:11:08.521Z,52.97
2019-05-03T15:12:20.152Z,52.68
2019-05-03T15:13:30.565Z,53.06
2019-05-03T15:14:42.559Z,53.64
2019-05-03T15:15:54.657Z,53.83
2019-05-03T15:17:05.289Z,53.64
2019-05-03T15:18:17.263Z,53.92
2019-05-03T15:19:28.238Z,53.83
2019-05-03T15:20:41.263Z,53.83
2019-05-03T15:21:54.620Z,53.92
2019-05-03T15:23:05.488Z,53.83
2019-05-03T15:24:17.464Z,52.97
2019-05-03T15:25:28.103Z,52.87
2019-05-03T15:26:39.862Z,52.2
2019-05-03T15:27:51.075Z,52.68
2019-05-03T15:29:04.716Z,52.68
2019-05-03T15:30:15.495Z,53.35
2019-05-03T15:31:27.038Z,53.64
2019-05-03T15:32:38.281Z,53.64
2019-05-03T15:34:07.947Z,53.92
2019-05-03T15:35:18.167Z,53.64
2019-05-03T15:36:28.814Z,53.54
2019-05-03T15:37:38.755Z,52.78
2019-05-03T15:38:50.424Z,52.87
2019-05-03T15:40:00.487Z,53.25